Time;durP1;ratioP1;P1;durP2;ratioP2;P2;SDS_P1;SDS_P2;PMS_P1;PMS_P2;Temp;Humidity;BMP_temperature;BMP_pressure;BME280_temperature;BME280_humidity;BME280_pressure;Samples;Min_cycle;Max_cycle;Signal;HPM_P1;HPM_P2
2022/01/01 00:00:00;;;;;;;60.45;31.52;;;12.60;99.90;;;;;;5067474;22;20053;-54
2022/01/01 00:02:26;;;;;;;59.47;30.65;;;12.60;99.90;;;;;;5034183;28;20466;-54
2022/01/01 00:04:51;;;;;;;55.80;28.70;;;12.60;99.90;;;;;;5034407;28;20044;-56
2022/01/01 00:07:17;;;;;;;50.38;24.48;;;12.60;99.90;;;;;;5034302;28;20483;-53
2022/01/01 00:09:44;;;;;;;49.45;25.30;;;12.60;99.90;;;;;;5034609;28;20057;-53
2022/01/01 00:12:11;;;;;;;44.72;23.27;;;12.60;99.90;;;;;;5034274;28;20026;-57
2022/01/01 00:14:37;;;;;;;44.70;22.58;;;12.60;99.90;;;;;;5034054;28;20089;-54
2022/01/01 00:17:04;;;;;;;42.33;21.42;;;12.60;99.90;;;;;;5034046;28;20021;-56
2022/01/01 00:19:31;;;;;;;44.25;21.25;;;12.60;99.90;;;;;;5033987;28;20018;-56
2022/01/01 00:22:00;;;;;;;36.42;20.10;;;12.60;99.90;;;;;;5033599;28;20033;-52
2022/01/01 00:24:26;;;;;;;41.00;19.63;;;12.60;99.90;;;;;;5033377;28;20018;-54
2022/01/01 00:26:52;;;;;;;46.55;21.08;;;12.60;99.90;;;;;;5033427;28;20032;-53
2022/01/01 00:29:18;;;;;;;48.00;22.52;;;12.60;99.90;;;;;;5033961;28;20127;-56
2022/01/01 00:31:44;;;;;;;40.58;20.65;;;12.60;99.90;;;;;;5033193;28;20097;-55
2022/01/01 00:34:10;;;;;;;46.08;20.38;;;12.60;99.90;;;;;;5032999;28;20494;-55
2022/01/01 00:36:36;;;;;;;40.05;19.63;;;12.70;99.90;;;;;;5032999;28;20226;-55
2022/01/01 00:39:02;;;;;;;46.45;20.98;;;12.60;99.90;;;;;;5033086;28;20070;-56
2022/01/01 00:41:27;;;;;;;52.83;22.83;;;12.70;99.90;;;;;;5032968;28;20017;-54
2022/01/01 00:43:53;;;;;;;52.35;25.13;;;12.70;99.90;;;;;;5033065;28;20033;-54
2022/01/01 00:46:19;;;;;;;48.63;24.98;;;12.60;99.90;;;;;;5032770;28;20068;-52
2022/01/01 00:48:44;;;;;;;56.03;29.05;;;12.60;99.90;;;;;;5032793;28;20040;-56
2022/01/01 00:51:10;;;;;;;71.53;37.38;;;12.60;99.90;;;;;;5033151;28;20026;-56
2022/01/01 00:53:35;;;;;;;77.50;39.75;;;12.60;99.90;;;;;;5033168;28;20025;-58
2022/01/01 00:56:01;;;;;;;74.38;37.97;;;12.60;99.90;;;;;;5032853;28;20028;-55
2022/01/01 00:58:26;;;;;;;78.22;39.25;;;12.60;99.90;;;;;;5033251;28;20021;-57
2022/01/01 01:00:52;;;;;;;76.15;39.42;;;12.60;99.90;;;;;;5033199;28;20037;-58
2022/01/01 01:03:18;;;;;;;70.80;35.67;;;12.60;99.90;;;;;;5033236;28;20025;-58
2022/01/01 01:05:46;;;;;;;64.43;30.98;;;12.60;99.90;;;;;;5033349;28;20066;-58
2022/01/01 01:08:14;;;;;;;51.67;26.70;;;12.60;99.90;;;;;;5033114;28;20021;-56
2022/01/01 01:10:40;;;;;;;47.20;25.13;;;12.70;99.90;;;;;;5033506;28;20036;-56
2022/01/01 01:13:07;;;;;;;42.75;22.45;;;12.60;99.90;;;;;;5031972;28;20025;-58
2022/01/01 01:15:34;;;;;;;45.20;21.73;;;12.60;99.90;;;;;;5033377;28;20048;-58
2022/01/01 01:18:01;;;;;;;45.60;22.83;;;12.60;99.90;;;;;;5033459;28;20030;-57
2022/01/01 01:20:28;;;;;;;41.47;20.70;;;12.50;99.90;;;;;;5033798;28;20026;-58
2022/01/01 01:22:54;;;;;;;43.60;19.73;;;12.60;99.90;;;;;;5033784;28;20045;-58
2022/01/01 01:25:22;;;;;;;42.40;18.88;;;12.60;99.90;;;;;;5033616;28;20036;-58
2022/01/01 01:27:50;;;;;;;45.10;20.35;;;12.50;99.90;;;;;;5033186;28;20025;-56
2022/01/01 01:30:16;;;;;;;49.30;20.92;;;12.50;99.90;;;;;;5033252;28;20029;-57
2022/01/01 01:32:43;;;;;;;44.30;19.48;;;12.50;99.90;;;;;;5032805;28;20022;-57
2022/01/01 01:35:10;;;;;;;42.45;19.45;;;12.60;99.90;;;;;;5032548;28;20505;-56
2022/01/01 01:37:36;;;;;;;42.13;18.85;;;12.60;99.90;;;;;;5032330;28;20445;-54
2022/01/01 01:40:02;;;;;;;40.22;19.30;;;12.50;99.90;;;;;;5032868;28;20077;-57
2022/01/01 01:42:29;;;;;;;42.05;18.40;;;12.50;99.90;;;;;;5033384;28;20112;-59
2022/01/01 01:44:56;;;;;;;37.70;19.02;;;12.50;99.90;;;;;;5034433;28;20482;-58
2022/01/01 01:47:31;;;;;;;36.78;18.63;;;12.50;99.90;;;;;;5032878;28;20036;-59
2022/01/01 01:49:59;;;;;;;41.85;19.00;;;12.50;99.90;;;;;;5033242;28;20040;-58
2022/01/01 01:52:28;;;;;;;37.50;19.02;;;12.50;99.90;;;;;;5033375;28;20029;-57
2022/01/01 01:54:54;;;;;;;41.53;19.63;;;12.50;99.90;;;;;;5033323;28;20062;-57
2022/01/01 01:57:19;;;;;;;42.97;19.30;;;12.60;99.90;;;;;;5033348;28;20083;-54
2022/01/01 01:59:45;;;;;;;36.40;17.77;;;12.60;99.90;;;;;;5032922;28;20033;-54
2022/01/01 02:02:12;;;;;;;41.67;18.92;;;12.50;99.90;;;;;;5031672;28;20124;-57
2022/01/01 02:04:38;;;;;;;37.10;19.30;;;12.60;99.90;;;;;;5032792;28;20021;-54
2022/01/01 02:07:07;;;;;;;44.92;17.55;;;12.60;99.90;;;;;;5033051;28;20386;-56
2022/01/01 02:09:34;;;;;;;37.85;18.02;;;12.60;99.90;;;;;;5033014;28;20017;-53
2022/01/01 02:12:02;;;;;;;39.05;17.42;;;12.60;99.90;;;;;;5032732;28;20029;-56
2022/01/01 02:14:47;;;;;;;32.63;17.65;;;12.60;99.90;;;;;;5033162;28;20025;-58
2022/01/01 02:17:13;;;;;;;37.53;18.30;;;12.60;99.90;;;;;;5033100;28;20029;-53
2022/01/01 02:19:55;;;;;;;35.08;17.63;;;12.60;99.90;;;;;;5032866;28;20048;-55
2022/01/01 02:22:22;;;;;;;36.00;18.58;;;12.60;99.90;;;;;;5032685;28;20160;-58
2022/01/01 02:24:48;;;;;;;39.20;17.00;;;12.60;99.90;;;;;;5032733;28;20030;-56
2022/01/01 02:27:14;;;;;;;39.08;17.40;;;12.60;99.90;;;;;;5031978;28;20084;-54
2022/01/01 02:29:40;;;;;;;42.22;18.27;;;12.60;99.90;;;;;;5030361;28;20025;-52
2022/01/01 02:32:13;;;;;;;39.42;17.67;;;12.60;99.90;;;;;;5031866;28;20489;-57
2022/01/01 02:34:41;;;;;;;45.58;18.63;;;12.60;99.90;;;;;;5031932;28;20362;-56
2022/01/01 02:37:06;;;;;;;48.65;19.38;;;12.60;99.90;;;;;;5032078;28;20036;-56
2022/01/01 02:39:32;;;;;;;44.20;20.27;;;12.60;99.90;;;;;;5030564;28;20112;-58
2022/01/01 02:41:58;;;;;;;42.30;19.80;;;12.60;99.90;;;;;;5032042;28;20106;-55
2022/01/01 02:44:26;;;;;;;49.92;19.92;;;12.60;99.90;;;;;;5031868;28;20028;-57
2022/01/01 02:46:52;;;;;;;40.35;17.63;;;12.60;99.90;;;;;;5031245;28;20478;-57
2022/01/01 02:49:18;;;;;;;49.53;18.85;;;12.50;99.90;;;;;;5032707;28;20025;-57
2022/01/01 02:51:43;;;;;;;45.55;19.67;;;12.50;99.90;;;;;;5035605;28;20021;-58
2022/01/01 02:54:09;;;;;;;41.28;18.73;;;12.60;99.90;;;;;;5035443;28;20028;-54
2022/01/01 02:56:35;;;;;;;46.85;20.42;;;12.50;99.90;;;;;;5035557;28;20029;-53
2022/01/01 02:59:00;;;;;;;40.80;19.52;;;12.50;99.90;;;;;;5035153;28;20176;-56
2022/01/01 03:01:26;;;;;;;38.35;18.15;;;12.50;99.90;;;;;;5033982;28;20060;-57
2022/01/01 03:03:51;;;;;;;42.25;19.33;;;12.50;99.90;;;;;;5034386;28;20025;-58
2022/01/01 03:06:20;;;;;;;49.85;20.67;;;12.50;99.90;;;;;;5035253;28;20039;-55
2022/01/01 03:08:51;;;;;;;42.45;19.40;;;12.50;99.90;;;;;;5035174;28;20058;-57
2022/01/01 03:11:18;;;;;;;51.67;20.13;;;12.50;99.90;;;;;;5035323;28;20035;-53
2022/01/01 03:13:44;;;;;;;43.08;19.23;;;12.50;99.90;;;;;;5035265;28;20029;-56
2022/01/01 03:16:10;;;;;;;43.35;20.40;;;12.50;99.90;;;;;;5035118;28;20018;-57
2022/01/01 03:18:36;;;;;;;40.47;18.48;;;12.50;99.90;;;;;;5035163;28;20117;-56
2022/01/01 03:21:02;;;;;;;52.05;21.27;;;12.50;99.90;;;;;;5034691;28;20104;-55
2022/01/01 03:23:28;;;;;;;41.08;19.92;;;12.50;99.90;;;;;;5034850;28;20061;-57
2022/01/01 03:25:53;;;;;;;40.90;18.40;;;12.50;99.90;;;;;;5034705;28;20105;-58
2022/01/01 03:28:19;;;;;;;43.30;20.90;;;12.50;99.90;;;;;;5033324;28;20052;-56
2022/01/01 03:30:44;;;;;;;45.47;20.13;;;12.60;99.90;;;;;;5034653;28;20022;-57
2022/01/01 03:33:10;;;;;;;38.50;19.77;;;12.50;99.90;;;;;;5034639;28;20026;-54
2022/01/01 03:35:36;;;;;;;50.13;19.70;;;12.50;99.90;;;;;;5033568;28;20029;-57
2022/01/01 03:38:02;;;;;;;49.20;19.95;;;12.50;99.90;;;;;;5034529;28;20025;-56
2022/01/01 03:40:27;;;;;;;46.88;19.00;;;12.50;99.90;;;;;;5034867;28;20121;-53
2022/01/01 03:42:53;;;;;;;36.72;18.92;;;12.50;99.90;;;;;;5034354;28;20034;-56
2022/01/01 03:45:18;;;;;;;51.47;19.30;;;12.50;99.90;;;;;;5034592;28;20061;-53
2022/01/01 03:47:44;;;;;;;47.47;19.52;;;12.50;99.90;;;;;;5034484;28;20259;-57
2022/01/01 03:50:10;;;;;;;49.03;20.48;;;12.50;99.90;;;;;;5034548;28;20013;-54
2022/01/01 03:52:41;;;;;;;48.78;20.40;;;12.50;99.90;;;;;;5034457;28;20029;-57
2022/01/01 03:55:06;;;;;;;50.63;21.38;;;12.50;99.90;;;;;;5034369;28;20029;-57
2022/01/01 03:57:32;;;;;;;47.67;22.40;;;12.40;99.90;;;;;;5034054;28;20040;-53
2022/01/01 03:59:57;;;;;;;57.90;23.05;;;12.40;99.90;;;;;;5033598;28;20117;-57
2022/01/01 04:02:23;;;;;;;55.28;24.13;;;12.40;99.90;;;;;;5033860;28;20029;-55
2022/01/01 04:04:49;;;;;;;62.45;23.98;;;12.40;99.90;;;;;;5034355;28;20108;-57
2022/01/01 04:07:14;;;;;;;64.53;26.60;;;12.40;99.90;;;;;;5034115;28;20564;-56
2022/01/01 04:09:40;;;;;;;55.40;26.05;;;12.40;99.90;;;;;;5033919;28;20589;-54
2022/01/01 04:12:05;;;;;;;63.17;27.10;;;12.40;99.90;;;;;;5034355;28;20116;-54
2022/01/01 04:14:31;;;;;;;62.13;27.77;;;12.50;99.90;;;;;;5034509;28;20105;-57
2022/01/01 04:16:58;;;;;;;61.72;28.30;;;12.40;99.90;;;;;;5034325;28;20033;-57
2022/01/01 04:19:32;;;;;;;63.95;27.92;;;12.50;99.90;;;;;;5034082;28;20021;-53
2022/01/01 04:21:58;;;;;;;68.55;28.63;;;12.50;99.90;;;;;;5034027;28;20041;-56
2022/01/01 04:24:23;;;;;;;59.60;28.92;;;12.50;99.90;;;;;;5033775;28;20068;-56
2022/01/01 04:26:49;;;;;;;60.63;29.63;;;12.40;99.90;;;;;;5034296;28;20486;-56
2022/01/01 04:29:14;;;;;;;65.03;27.90;;;12.40;99.90;;;;;;5032864;28;20031;-57
2022/01/01 04:31:41;;;;;;;66.10;29.90;;;12.40;99.90;;;;;;5033847;28;20536;-57
2022/01/01 04:34:07;;;;;;;64.32;29.08;;;12.40;99.90;;;;;;5032610;28;20017;-55
2022/01/01 04:36:32;;;;;;;64.35;28.70;;;12.40;99.90;;;;;;5033693;28;20029;-54
2022/01/01 04:38:58;;;;;;;64.72;27.38;;;12.40;99.90;;;;;;5033748;28;20043;-57
2022/01/01 04:41:24;;;;;;;58.03;27.33;;;12.40;99.90;;;;;;5033339;28;20474;-52
2022/01/01 04:43:49;;;;;;;65.65;28.55;;;12.40;99.90;;;;;;5033621;28;20022;-57
2022/01/01 04:46:15;;;;;;;64.85;28.27;;;12.40;99.90;;;;;;5033268;28;20079;-55
2022/01/01 04:48:41;;;;;;;58.47;27.45;;;12.40;99.90;;;;;;5033530;28;20041;-54
2022/01/01 04:51:11;;;;;;;69.90;29.17;;;12.50;99.90;;;;;;5033188;28;20046;-54
2022/01/01 04:53:43;;;;;;;63.95;29.17;;;12.40;99.90;;;;;;5033427;28;20037;-55
2022/01/01 04:56:09;;;;;;;60.00;28.88;;;12.40;99.90;;;;;;5033732;28;20053;-53
2022/01/01 04:58:35;;;;;;;75.45;29.80;;;12.40;99.90;;;;;;5033205;28;20033;-55
2022/01/01 05:01:01;;;;;;;77.25;31.30;;;12.40;99.90;;;;;;5033360;28;20033;-57
2022/01/01 05:03:27;;;;;;;68.30;30.08;;;12.30;99.90;;;;;;5032988;28;20041;-52
2022/01/01 05:05:52;;;;;;;73.10;30.50;;;12.40;99.90;;;;;;5033392;28;20021;-53
2022/01/01 05:08:18;;;;;;;77.18;33.17;;;12.30;99.90;;;;;;5032918;28;20038;-55
2022/01/01 05:10:43;;;;;;;85.60;31.35;;;12.30;99.90;;;;;;5033344;28;20356;-55
2022/01/01 05:13:09;;;;;;;78.10;33.72;;;12.30;99.90;;;;;;5032121;28;20025;-55
2022/01/01 05:15:35;;;;;;;75.10;35.03;;;12.30;99.90;;;;;;5033359;28;20182;-56
2022/01/01 05:18:00;;;;;;;76.22;33.80;;;12.40;99.90;;;;;;5033401;28;20029;-54
2022/01/01 05:20:27;;;;;;;70.60;33.25;;;12.40;99.90;;;;;;5032864;28;20171;-54
2022/01/01 05:22:52;;;;;;;75.90;35.10;;;12.40;99.90;;;;;;5032747;28;20025;-54
2022/01/01 05:25:18;;;;;;;76.82;35.30;;;12.30;99.90;;;;;;5032537;28;20049;-58
2022/01/01 05:27:44;;;;;;;78.43;36.30;;;12.40;99.90;;;;;;5033165;28;20036;-52
2022/01/01 05:30:10;;;;;;;89.13;35.75;;;12.40;99.90;;;;;;5032706;28;20029;-54
2022/01/01 05:32:36;;;;;;;82.72;37.70;;;12.30;99.90;;;;;;5032607;28;20075;-57
2022/01/01 05:35:01;;;;;;;80.90;38.70;;;12.30;99.90;;;;;;5032444;28;20482;-56
2022/01/01 05:37:27;;;;;;;87.05;38.05;;;12.40;99.90;;;;;;5032310;28;20068;-57
2022/01/01 05:39:52;;;;;;;83.43;38.50;;;12.40;99.90;;;;;;5032700;28;20072;-53
2022/01/01 05:42:18;;;;;;;92.72;37.58;;;12.40;99.90;;;;;;5032274;28;20033;-56
2022/01/01 05:44:44;;;;;;;94.72;37.92;;;12.40;99.90;;;;;;5032414;28;20025;-58
2022/01/01 05:47:09;;;;;;;90.97;41.17;;;12.40;99.90;;;;;;5032102;28;20029;-57
2022/01/01 05:49:35;;;;;;;83.70;38.33;;;12.40;99.90;;;;;;5032119;28;20048;-55
2022/01/01 05:52:00;;;;;;;94.43;38.83;;;12.40;99.90;;;;;;5032289;28;20030;-54
2022/01/01 05:54:26;;;;;;;101.07;40.13;;;12.40;99.90;;;;;;5032321;28;20021;-53
2022/01/01 05:56:52;;;;;;;93.32;39.33;;;12.40;99.90;;;;;;5032132;28;20026;-53
2022/01/01 05:59:17;;;;;;;92.65;40.13;;;12.30;99.90;;;;;;5030436;28;20037;-54
2022/01/01 06:01:43;;;;;;;89.72;40.03;;;12.40;99.90;;;;;;5046101;22;20045;-56
2022/01/01 06:04:08;;;;;;;96.43;39.33;;;12.40;99.90;;;;;;5033698;28;20498;-57
2022/01/01 06:06:34;;;;;;;94.10;39.15;;;12.40;99.90;;;;;;5033378;28;20544;-56
2022/01/01 06:09:00;;;;;;;89.68;38.88;;;12.40;99.90;;;;;;5032922;28;20405;-58
2022/01/01 06:11:25;;;;;;;92.80;38.15;;;12.40;99.90;;;;;;5033052;28;20022;-57
2022/01/01 06:13:51;;;;;;;86.05;38.80;;;12.40;99.90;;;;;;5033412;28;20032;-57
2022/01/01 06:16:17;;;;;;;87.25;36.90;;;12.40;99.90;;;;;;5032995;28;20025;-58
2022/01/01 06:18:42;;;;;;;81.75;36.72;;;12.40;99.90;;;;;;5033036;28;20033;-55
2022/01/01 06:21:08;;;;;;;85.65;35.10;;;12.40;99.90;;;;;;5032331;28;20079;-57
2022/01/01 06:23:37;;;;;;;90.35;36.30;;;12.40;99.90;;;;;;5034619;28;20037;-54
2022/01/01 06:26:06;;;;;;;75.82;34.90;;;12.40;99.90;;;;;;5036514;28;20026;-55
2022/01/01 06:28:32;;;;;;;86.28;35.95;;;12.40;99.90;;;;;;5036668;28;20025;-56
2022/01/01 06:30:57;;;;;;;80.15;35.42;;;12.30;99.90;;;;;;5036569;28;20083;-56
2022/01/01 06:33:23;;;;;;;84.07;34.33;;;12.40;99.90;;;;;;5037032;28;20025;-58
2022/01/01 06:35:49;;;;;;;77.00;33.72;;;12.40;99.90;;;;;;5036840;28;20036;-57
2022/01/01 06:38:15;;;;;;;81.55;33.75;;;12.40;99.90;;;;;;5036759;28;20589;-53
2022/01/01 06:40:42;;;;;;;86.25;35.40;;;12.40;99.90;;;;;;5035188;28;20163;-56
2022/01/01 06:43:11;;;;;;;81.05;37.90;;;12.40;99.90;;;;;;5035658;28;20541;-58
2022/01/01 06:45:37;;;;;;;86.43;36.38;;;12.50;99.90;;;;;;5036327;28;20029;-57
2022/01/01 06:48:03;;;;;;;87.88;37.15;;;12.50;99.90;;;;;;5036799;28;20036;-55
2022/01/01 06:50:29;;;;;;;93.38;37.70;;;12.40;99.90;;;;;;5038069;28;20481;-58
2022/01/01 06:52:55;;;;;;;94.72;39.00;;;12.50;99.90;;;;;;5038183;28;20030;-58
2022/01/01 06:55:21;;;;;;;86.93;40.45;;;12.40;99.90;;;;;;5047137;28;20052;-58
2022/01/01 06:57:46;;;;;;;92.72;39.78;;;12.40;99.90;;;;;;5051271;28;20550;-56
2022/01/01 07:00:13;;;;;;;95.05;39.85;;;12.40;99.90;;;;;;5038750;28;20075;-57
2022/01/01 07:02:49;;;;;;;97.85;41.30;;;12.50;99.90;;;;;;5046440;28;20490;-57
2022/01/01 07:05:15;;;;;;;90.63;40.10;;;12.50;99.90;;;;;;5040835;28;20112;-53
2022/01/01 07:07:41;;;;;;;97.38;40.88;;;12.50;99.90;;;;;;5038219;28;20113;-57
2022/01/01 07:10:10;;;;;;;101.35;41.08;;;12.50;99.90;;;;;;5048524;28;20057;-56
2022/01/01 07:12:37;;;;;;;104.95;43.70;;;12.40;99.90;;;;;;5045650;28;20039;-57
2022/01/01 07:15:04;;;;;;;105.63;45.75;;;12.50;99.90;;;;;;5042287;28;20039;-57
2022/01/01 07:17:29;;;;;;;92.22;43.28;;;12.50;99.90;;;;;;5052266;28;20082;-55
2022/01/01 07:19:55;;;;;;;100.40;43.80;;;12.40;99.90;;;;;;5034867;28;20541;-57
2022/01/01 07:22:20;;;;;;;104.57;46.15;;;12.50;99.90;;;;;;5043262;28;20397;-56
2022/01/01 07:24:46;;;;;;;113.38;46.35;;;12.40;99.90;;;;;;5044286;28;20030;-58
2022/01/01 07:27:12;;;;;;;114.45;46.70;;;12.50;99.90;;;;;;5050543;28;20033;-55
2022/01/01 07:29:41;;;;;;;118.50;47.88;;;12.50;99.90;;;;;;5037759;28;20086;-56
2022/01/01 07:32:07;;;;;;;116.70;46.97;;;12.50;99.90;;;;;;5041130;28;20075;-57
2022/01/01 07:34:32;;;;;;;115.95;47.47;;;12.40;99.90;;;;;;5045423;28;20437;-55
2022/01/01 07:36:58;;;;;;;115.88;46.60;;;12.50;99.90;;;;;;5047899;28;20111;-54
2022/01/01 07:39:23;;;;;;;116.13;48.13;;;12.40;99.90;;;;;;5040192;28;20038;-56
2022/01/01 07:41:49;;;;;;;114.95;48.30;;;12.40;99.90;;;;;;5047299;28;20047;-58
2022/01/01 07:44:15;;;;;;;112.43;47.17;;;12.40;99.90;;;;;;5040738;28;20091;-58
2022/01/01 07:46:40;;;;;;;118.18;46.40;;;12.50;99.90;;;;;;5036612;28;20064;-56
2022/01/01 07:49:06;;;;;;;108.32;48.13;;;12.50;99.90;;;;;;5035511;28;20057;-57
2022/01/01 07:51:32;;;;;;;115.63;48.75;;;12.50;99.90;;;;;;5038553;28;20092;-59
2022/01/01 07:53:58;;;;;;;102.35;43.92;;;12.50;99.90;;;;;;5036542;28;20076;-54
2022/01/01 07:56:23;;;;;;;108.53;44.65;;;12.50;99.90;;;;;;5036408;28;20386;-57
2022/01/01 07:58:49;;;;;;;101.60;43.85;;;12.50;99.90;;;;;;5034962;28;20487;-58
2022/01/01 08:01:14;;;;;;;114.63;45.08;;;12.50;99.90;;;;;;5035972;28;20037;-55
2022/01/01 08:03:40;;;;;;;98.28;44.25;;;12.50;99.90;;;;;;5038728;28;20021;-57
2022/01/01 08:06:05;;;;;;;101.47;41.42;;;12.50;99.90;;;;;;5036412;28;20041;-58
2022/01/01 08:08:31;;;;;;;105.50;45.25;;;12.50;99.90;;;;;;5046226;28;20033;-58
2022/01/01 08:10:58;;;;;;;101.22;43.38;;;12.50;99.90;;;;;;5039364;28;20025;-58
2022/01/01 08:13:25;;;;;;;101.15;46.17;;;12.50;99.90;;;;;;5045981;28;20052;-56
2022/01/01 08:15:52;;;;;;;99.45;43.72;;;12.50;99.90;;;;;;5034271;28;20466;-59
2022/01/01 08:18:18;;;;;;;89.35;42.05;;;12.50;99.90;;;;;;5044127;28;20111;-59
2022/01/01 08:20:44;;;;;;;99.68;42.75;;;12.50;99.90;;;;;;5040467;28;20034;-58
2022/01/01 08:23:10;;;;;;;103.85;43.55;;;12.60;99.90;;;;;;5036196;28;20516;-58
2022/01/01 08:25:36;;;;;;;104.63;43.97;;;12.60;99.90;;;;;;5034991;28;20036;-58
2022/01/01 08:28:03;;;;;;;100.68;43.10;;;12.60;99.90;;;;;;5040413;28;20078;-55
2022/01/01 08:30:28;;;;;;;101.53;41.75;;;12.50;99.90;;;;;;5035807;28;20033;-54
2022/01/01 08:33:01;;;;;;;92.30;41.75;;;12.60;99.90;;;;;;5035144;28;20359;-56
2022/01/01 08:35:31;;;;;;;89.45;39.60;;;12.60;99.90;;;;;;5036819;28;20441;-57
2022/01/01 08:37:56;;;;;;;91.38;41.72;;;12.60;99.90;;;;;;5042659;28;20551;-58
2022/01/01 08:40:23;;;;;;;88.10;41.65;;;12.60;99.90;;;;;;5044724;28;20045;-57
2022/01/01 08:42:49;;;;;;;88.57;40.88;;;12.60;99.90;;;;;;5050101;28;20032;-57
2022/01/01 08:45:14;;;;;;;84.07;39.45;;;12.60;99.90;;;;;;5036194;28;20037;-57
2022/01/01 08:47:40;;;;;;;93.82;39.10;;;12.70;99.90;;;;;;5046479;28;20024;-56
2022/01/01 08:50:06;;;;;;;86.25;38.67;;;12.70;99.90;;;;;;5035991;28;20037;-58
2022/01/01 08:52:32;;;;;;;79.95;36.47;;;12.70;99.90;;;;;;5046884;28;20120;-56
2022/01/01 08:54:59;;;;;;;81.72;36.97;;;12.60;99.90;;;;;;5041197;28;20041;-57
2022/01/01 08:57:26;;;;;;;85.00;38.10;;;12.70;99.90;;;;;;5048861;28;20102;-58
2022/01/01 08:59:52;;;;;;;79.82;36.40;;;12.70;99.90;;;;;;5052415;28;20438;-58
2022/01/01 09:02:17;;;;;;;72.60;35.28;;;12.70;99.90;;;;;;5041867;28;20029;-56
2022/01/01 09:04:43;;;;;;;79.47;33.63;;;12.70;99.90;;;;;;5053043;28;20392;-55
2022/01/01 09:07:09;;;;;;;80.93;33.13;;;12.70;99.90;;;;;;5037249;28;20520;-56
2022/01/01 09:09:34;;;;;;;75.22;33.30;;;12.70;99.90;;;;;;5049086;28;20022;-56
2022/01/01 09:12:00;;;;;;;77.82;35.60;;;12.60;99.90;;;;;;5040668;28;20033;-56
2022/01/01 09:14:25;;;;;;;66.15;33.22;;;12.60;99.90;;;;;;5041829;28;20191;-57
2022/01/01 09:16:51;;;;;;;74.68;33.17;;;12.70;99.90;;;;;;5039723;28;20071;-58
2022/01/01 09:19:19;;;;;;;78.60;33.97;;;12.70;99.90;;;;;;5043032;28;20057;-57
2022/01/01 09:21:44;;;;;;;70.93;33.92;;;12.70;99.90;;;;;;5042311;28;20037;-59
2022/01/01 09:24:10;;;;;;;70.78;33.70;;;12.70;99.90;;;;;;5040820;28;20025;-59
2022/01/01 09:26:36;;;;;;;71.18;33.63;;;12.70;99.90;;;;;;5040248;28;20025;-59
2022/01/01 09:29:02;;;;;;;74.13;33.63;;;12.70;99.90;;;;;;5037164;28;20064;-61
2022/01/01 09:31:28;;;;;;;72.00;33.55;;;12.80;99.90;;;;;;5036722;28;20017;-56
2022/01/01 09:33:53;;;;;;;75.18;34.17;;;12.80;99.90;;;;;;5034608;28;20026;-57
2022/01/01 09:36:20;;;;;;;66.63;31.92;;;12.80;99.90;;;;;;5034818;28;20112;-57
2022/01/01 09:38:46;;;;;;;72.85;34.10;;;12.80;99.90;;;;;;5046530;28;20025;-58
2022/01/01 09:41:13;;;;;;;70.72;31.73;;;12.80;99.90;;;;;;5036406;28;20110;-58
2022/01/01 09:43:40;;;;;;;58.90;30.83;;;12.80;99.90;;;;;;5047536;28;20021;-57
2022/01/01 09:46:06;;;;;;;68.10;31.45;;;12.80;99.90;;;;;;5040763;28;20025;-57
2022/01/01 09:48:32;;;;;;;70.35;31.27;;;12.90;99.90;;;;;;5039004;28;20036;-58
2022/01/01 09:51:00;;;;;;;63.22;30.88;;;12.90;99.90;;;;;;5047967;28;20064;-57
2022/01/01 09:53:27;;;;;;;66.50;29.77;;;12.90;99.90;;;;;;5035844;28;20029;-57
2022/01/01 09:55:54;;;;;;;63.25;28.80;;;13.00;99.90;;;;;;5046056;28;20391;-58
2022/01/01 09:58:46;;;;;;;63.88;29.42;;;12.90;99.90;;;;;;5042680;28;20033;-54
2022/01/01 10:01:12;;;;;;;63.08;28.73;;;13.00;99.90;;;;;;5033064;28;20049;-58
2022/01/01 10:03:43;;;;;;;56.10;27.85;;;13.00;99.90;;;;;;5038315;28;20440;-57
2022/01/01 10:06:14;;;;;;;58.78;29.00;;;13.00;99.90;;;;;;5043702;28;20486;-57
2022/01/01 10:09:03;;;;;;;60.17;29.08;;;13.00;99.90;;;;;;5047374;28;20057;-58
2022/01/01 10:11:30;;;;;;;58.92;28.55;;;13.00;99.90;;;;;;5035854;28;20029;-59
2022/01/01 10:13:56;;;;;;;68.22;27.83;;;13.00;99.90;;;;;;5051063;28;20087;-57
2022/01/01 10:16:22;;;;;;;64.70;27.83;;;13.10;99.90;;;;;;5041490;28;20108;-56
2022/01/01 10:18:53;;;;;;;56.50;28.08;;;13.00;99.90;;;;;;5042904;28;20021;-59
2022/01/01 10:21:23;;;;;;;63.05;28.42;;;13.10;99.90;;;;;;5047140;28;20407;-57
2022/01/01 10:23:55;;;;;;;62.67;27.23;;;13.00;99.90;;;;;;5046882;28;20033;-58
2022/01/01 10:29:27;;;;;;;65.00;25.63;;;13.10;99.90;;;;;;5032046;28;20067;-57
2022/01/01 10:32:00;;;;;;;56.60;25.90;;;13.10;99.90;;;;;;5045801;28;20028;-52
2022/01/01 10:34:34;;;;;;;63.28;26.15;;;13.10;99.90;;;;;;5033292;28;20029;-53
2022/01/01 10:37:00;;;;;;;60.05;25.92;;;13.10;99.90;;;;;;5037750;28;20039;-56
2022/01/01 10:39:27;;;;;;;66.10;26.58;;;13.20;99.90;;;;;;5040629;28;20418;-58
2022/01/01 10:42:00;;;;;;;57.05;26.48;;;13.30;99.90;;;;;;5046404;28;20025;-57
2022/01/01 10:44:33;;;;;;;48.35;26.13;;;13.20;99.90;;;;;;5035972;28;20040;-57
2022/01/01 10:47:03;;;;;;;61.03;25.83;;;13.20;99.90;;;;;;5033638;28;20037;-57
2022/01/01 10:49:52;;;;;;;57.63;25.40;;;13.20;99.90;;;;;;5049159;28;20028;-59
2022/01/01 10:52:21;;;;;;;61.50;26.58;;;13.20;99.90;;;;;;5036310;28;20111;-58
2022/01/01 10:55:04;;;;;;;57.45;26.58;;;13.20;99.90;;;;;;5034120;28;20021;-57
2022/01/01 10:57:35;;;;;;;54.92;25.35;;;13.20;99.90;;;;;;5031532;28;20037;-57
2022/01/01 11:00:23;;;;;;;55.60;25.80;;;13.20;99.90;;;;;;5039912;28;20024;-57
2022/01/01 11:02:57;;;;;;;49.53;23.73;;;13.30;99.90;;;;;;5035841;28;20029;-59
2022/01/01 11:05:41;;;;;;;59.67;26.27;;;13.30;99.90;;;;;;5021102;28;20021;-59
2022/01/01 11:08:08;;;;;;;53.33;24.48;;;13.30;99.90;;;;;;5033697;28;20075;-58
2022/01/01 11:10:36;;;;;;;55.25;25.80;;;13.30;99.90;;;;;;5039443;28;20489;-58
2022/01/01 11:13:03;;;;;;;57.67;25.88;;;13.40;99.90;;;;;;5052540;28;20144;-60
2022/01/01 11:15:29;;;;;;;48.88;26.42;;;13.40;99.90;;;;;;5041539;28;20013;-61
2022/01/01 11:17:56;;;;;;;66.30;27.95;;;13.30;99.90;;;;;;5047116;28;20065;-60
2022/01/01 11:20:24;;;;;;;51.97;26.48;;;13.40;99.90;;;;;;5037498;28;20687;-61
2022/01/01 11:22:50;;;;;;;61.47;27.10;;;13.40;99.90;;;;;;5034297;28;20460;-59
2022/01/01 11:25:19;;;;;;;56.40;27.13;;;13.50;99.90;;;;;;5035954;28;20170;-59
2022/01/01 11:27:45;;;;;;;47.92;26.40;;;13.60;99.90;;;;;;5035677;28;20056;-59
2022/01/01 11:30:13;;;;;;;56.33;26.67;;;13.60;99.90;;;;;;5035758;28;20175;-60
2022/01/01 11:32:54;;;;;;;54.75;26.42;;;13.70;99.90;;;;;;5035539;28;20049;-60
2022/01/01 11:35:29;;;;;;;58.60;28.17;;;13.70;99.90;;;;;;5032607;28;20386;-58
2022/01/01 11:38:09;;;;;;;55.15;26.88;;;13.80;99.90;;;;;;5035232;28;20482;-56
2022/01/01 11:40:59;;;;;;;50.50;25.92;;;13.80;99.90;;;;;;5038340;28;20030;-57
2022/01/01 11:43:43;;;;;;;53.42;27.17;;;13.80;99.90;;;;;;5035924;28;20052;-60
2022/01/01 11:46:10;;;;;;;55.30;27.17;;;13.90;99.90;;;;;;5034841;28;20021;-58
2022/01/01 11:48:38;;;;;;;56.13;26.48;;;13.90;99.90;;;;;;5036252;28;20452;-60
2022/01/01 11:51:31;;;;;;;63.40;26.83;;;13.90;99.90;;;;;;5035621;28;20028;-59
2022/01/01 11:54:15;;;;;;;50.35;26.48;;;13.90;99.90;;;;;;5036089;28;20052;-57
2022/01/01 11:56:49;;;;;;;50.85;25.35;;;13.90;99.90;;;;;;5034565;28;20105;-57
2022/01/01 11:59:30;;;;;;;59.33;27.38;;;13.90;99.90;;;;;;5034079;28;20026;-57
2022/01/01 12:01:59;;;;;;;53.13;26.75;;;13.90;99.90;;;;;;5067672;23;20201;-58
2022/01/01 12:04:35;;;;;;;54.95;28.00;;;13.90;99.90;;;;;;5037389;28;20029;-59
2022/01/01 12:07:16;;;;;;;50.75;25.27;;;13.90;99.90;;;;;;5036552;28;20079;-58
2022/01/01 12:10:07;;;;;;;57.25;24.88;;;14.00;99.90;;;;;;5037715;28;20025;-59
2022/01/01 12:12:44;;;;;;;46.73;23.10;;;14.00;99.90;;;;;;5038273;28;20100;-58
2022/01/01 12:15:51;;;;;;;47.97;22.73;;;14.00;99.90;;;;;;5036830;28;20021;-58
2022/01/01 12:18:22;;;;;;;41.05;21.85;;;14.10;99.90;;;;;;5036985;28;20112;-59
2022/01/01 12:20:52;;;;;;;47.78;22.20;;;14.10;99.90;;;;;;5036921;28;20057;-60
2022/01/01 12:23:21;;;;;;;41.67;19.30;;;14.20;99.90;;;;;;5037143;28;20417;-60
2022/01/01 12:25:47;;;;;;;36.88;19.05;;;14.30;99.90;;;;;;5035860;28;20166;-59
2022/01/01 12:28:17;;;;;;;40.80;20.30;;;14.30;99.90;;;;;;5035406;28;20336;-61
2022/01/01 12:30:54;;;;;;;38.60;19.02;;;14.30;99.90;;;;;;5035615;28;20022;-56